sensor_id;sensor_type;location;lat;lon;timestamp;pressure;altitude;pressure_sealevel;temperature;humidity
54389;BME280;40975;50.390;8.640;2022-09-23T00:01:11;99439.84;;;5.97;100.00
54389;BME280;40975;50.390;8.640;2022-09-23T00:03:39;99442.47;;;5.97;100.00
54389;BME280;40975;50.390;8.640;2022-09-23T00:06:20;99444.38;;;5.95;100.00
54389;BME280;40975;50.390;8.640;2022-09-23T00:08:46;99439.09;;;5.95;100.00
54389;BME280;40975;50.390;8.640;2022-09-23T00:11:16;99445.34;;;5.94;100.00
54389;BME280;40975;50.390;8.640;2022-09-23T00:13:44;99441.13;;;5.91;100.00
54389;BME280;40975;50.390;8.640;2022-09-23T00:16:17;99438.28;;;5.94;100.00
54389;BME280;40975;50.390;8.640;2022-09-23T00:18:43;99442.47;;;5.97;100.00
54389;BME280;40975;50.390;8.640;2022-09-23T00:21:11;99442.59;;;5.95;100.00
54389;BME280;40975;50.390;8.640;2022-09-23T00:23:38;99437.66;;;5.90;100.00
54389;BME280;40975;50.390;8.640;2022-09-23T00:26:05;99429.22;;;5.85;100.00
54389;BME280;40975;50.390;8.640;2022-09-23T00:28:32;99435.97;;;5.89;100.00
54389;BME280;40975;50.390;8.640;2022-09-23T00:31:09;99424.59;;;5.76;100.00
54389;BME280;40975;50.390;8.640;2022-09-23T00:33:35;99429.56;;;5.68;100.00
54389;BME280;40975;50.390;8.640;2022-09-23T00:36:03;99435.25;;;5.74;100.00
54389;BME280;40975;50.390;8.640;2022-09-23T00:38:29;99424.19;;;5.69;100.00
54389;BME280;40975;50.390;8.640;2022-09-23T00:40:54;99419.91;;;5.68;100.00
54389;BME280;40975;50.390;8.640;2022-09-23T00:43:36;99426.19;;;5.66;100.00
54389;BME280;40975;50.390;8.640;2022-09-23T00:46:02;99413.47;;;5.59;100.00
54389;BME280;40975;50.390;8.640;2022-09-23T00:48:27;99428.44;;;5.72;100.00
54389;BME280;40975;50.390;8.640;2022-09-23T00:50:53;99429.38;;;5.71;100.00
54389;BME280;40975;50.390;8.640;2022-09-23T00:53:21;99419.78;;;5.70;100.00
54389;BME280;40975;50.390;8.640;2022-09-23T00:58:44;99419.56;;;5.73;100.00
54389;BME280;40975;50.390;8.640;2022-09-23T01:01:11;99416.81;;;5.74;100.00
54389;BME280;40975;50.390;8.640;2022-09-23T01:03:38;99418.50;;;5.75;100.00
54389;BME280;40975;50.390;8.640;2022-09-23T01:06:04;99406.72;;;5.68;100.00
54389;BME280;40975;50.390;8.640;2022-09-23T01:08:30;99409.47;;;5.67;100.00
54389;BME280;40975;50.390;8.640;2022-09-23T01:17:06;99404.59;;;5.73;100.00
54389;BME280;40975;50.390;8.640;2022-09-23T01:19:45;99399.53;;;5.70;100.00
54389;BME280;40975;50.390;8.640;2022-09-23T01:22:36;99392.81;;;5.66;100.00
54389;BME280;40975;50.390;8.640;2022-09-23T01:25:20;99392.28;;;5.61;100.00
54389;BME280;40975;50.390;8.640;2022-09-23T01:28:00;99387.34;;;5.56;100.00
54389;BME280;40975;50.390;8.640;2022-09-23T01:30:56;99396.63;;;5.49;100.00
54389;BME280;40975;50.390;8.640;2022-09-23T01:36:23;99394.13;;;5.35;100.00
54389;BME280;40975;50.390;8.640;2022-09-23T01:39:10;99390.78;;;5.33;100.00
54389;BME280;40975;50.390;8.640;2022-09-23T01:42:01;99386.16;;;5.23;100.00
54389;BME280;40975;50.390;8.640;2022-09-23T01:44:30;99391.19;;;5.26;100.00
54389;BME280;40975;50.390;8.640;2022-09-23T01:47:03;99395.69;;;5.24;100.00
54389;BME280;40975;50.390;8.640;2022-09-23T01:52:30;99386.22;;;5.22;100.00
54389;BME280;40975;50.390;8.640;2022-09-23T01:55:07;99378.78;;;5.16;100.00
54389;BME280;40975;50.390;8.640;2022-09-23T01:57:39;99377.72;;;5.18;100.00
54389;BME280;40975;50.390;8.640;2022-09-23T02:00:11;99381.28;;;5.17;100.00
54389;BME280;40975;50.390;8.640;2022-09-23T02:02:48;99382.22;;;5.16;100.00
54389;BME280;40975;50.390;8.640;2022-09-23T02:05:19;99384.03;;;5.16;100.00
54389;BME280;40975;50.390;8.640;2022-09-23T02:07:53;99376.66;;;5.08;100.00
54389;BME280;40975;50.390;8.640;2022-09-23T02:10:31;99373.50;;;5.03;100.00
54389;BME280;40975;50.390;8.640;2022-09-23T02:13:04;99368.34;;;5.01;100.00
54389;BME280;40975;50.390;8.640;2022-09-23T02:15:35;99383.41;;;4.99;100.00
54389;BME280;40975;50.390;8.640;2022-09-23T02:18:11;99380.22;;;4.94;100.00
54389;BME280;40975;50.390;8.640;2022-09-23T02:20:37;99375.09;;;4.92;100.00
54389;BME280;40975;50.390;8.640;2022-09-23T02:23:12;99372.03;;;4.86;100.00
54389;BME280;40975;50.390;8.640;2022-09-23T02:25:43;99360.75;;;4.83;100.00
54389;BME280;40975;50.390;8.640;2022-09-23T02:28:16;99372.78;;;4.88;100.00
54389;BME280;40975;50.390;8.640;2022-09-23T02:30:49;99365.50;;;4.91;100.00
54389;BME280;40975;50.390;8.640;2022-09-23T02:33:26;99369.19;;;4.89;100.00
54389;BME280;40975;50.390;8.640;2022-09-23T02:36:16;99370.53;;;4.94;100.00
54389;BME280;40975;50.390;8.640;2022-09-23T02:38:48;99363.50;;;4.95;100.00
54389;BME280;40975;50.390;8.640;2022-09-23T02:41:29;99364.56;;;4.92;100.00
54389;BME280;40975;50.390;8.640;2022-09-23T02:44:07;99363.06;;;4.88;100.00
54389;BME280;40975;50.390;8.640;2022-09-23T02:46:35;99361.91;;;4.79;100.00
54389;BME280;40975;50.390;8.640;2022-09-23T02:49:04;99365.91;;;4.72;100.00
54389;BME280;40975;50.390;8.640;2022-09-23T02:51:35;99357.06;;;4.73;100.00
54389;BME280;40975;50.390;8.640;2022-09-23T02:54:03;99353.94;;;4.68;100.00
54389;BME280;40975;50.390;8.640;2022-09-23T02:56:32;99349.69;;;4.65;100.00
54389;BME280;40975;50.390;8.640;2022-09-23T02:58:57;99346.13;;;4.66;100.00
54389;BME280;40975;50.390;8.640;2022-09-23T03:01:38;99339.16;;;4.65;100.00
54389;BME280;40975;50.390;8.640;2022-09-23T03:07:07;99342.97;;;4.61;100.00
54389;BME280;40975;50.390;8.640;2022-09-23T03:09:42;99333.91;;;4.65;100.00
54389;BME280;40975;50.390;8.640;2022-09-23T03:12:19;99333.09;;;4.65;100.00
54389;BME280;40975;50.390;8.640;2022-09-23T03:15:01;99337.78;;;4.60;100.00
54389;BME280;40975;50.390;8.640;2022-09-23T03:17:37;99329.19;;;4.58;100.00
54389;BME280;40975;50.390;8.640;2022-09-23T03:20:11;99334.66;;;4.55;100.00
54389;BME280;40975;50.390;8.640;2022-09-23T03:22:44;99333.41;;;4.60;100.00
54389;BME280;40975;50.390;8.640;2022-09-23T03:25:14;99339.47;;;4.61;100.00
54389;BME280;40975;50.390;8.640;2022-09-23T03:27:42;99334.97;;;4.63;100.00
54389;BME280;40975;50.390;8.640;2022-09-23T03:30:09;99334.84;;;4.64;100.00
54389;BME280;40975;50.390;8.640;2022-09-23T03:32:35;99330.97;;;4.57;100.00
54389;BME280;40975;50.390;8.640;2022-09-23T03:35:03;99338.34;;;4.52;100.00
54389;BME280;40975;50.390;8.640;2022-09-23T03:37:37;99336.53;;;4.53;100.00
54389;BME280;40975;50.390;8.640;2022-09-23T03:40:14;99332.22;;;4.51;100.00
54389;BME280;40975;50.390;8.640;2022-09-23T03:42:41;99334.97;;;4.50;100.00
54389;BME280;40975;50.390;8.640;2022-09-23T03:45:10;99324.56;;;4.48;100.00
54389;BME280;40975;50.390;8.640;2022-09-23T03:47:37;99324.88;;;4.57;100.00
54389;BME280;40975;50.390;8.640;2022-09-23T03:50:04;99315.19;;;4.57;100.00
54389;BME280;40975;50.390;8.640;2022-09-23T03:52:30;99315.94;;;4.59;100.00
54389;BME280;40975;50.390;8.640;2022-09-23T03:54:55;99316.88;;;4.58;100.00
54389;BME280;40975;50.390;8.640;2022-09-23T03:57:21;99314.44;;;4.55;100.00
54389;BME280;40975;50.390;8.640;2022-09-23T03:59:50;99313.50;;;4.56;100.00
54389;BME280;40975;50.390;8.640;2022-09-23T04:02:17;99310.78;;;4.58;100.00
54389;BME280;40975;50.390;8.640;2022-09-23T04:04:42;99309.94;;;4.57;100.00
54389;BME280;40975;50.390;8.640;2022-09-23T04:07:08;99302.59;;;4.62;100.00
54389;BME280;40975;50.390;8.640;2022-09-23T04:09:35;99305.84;;;4.66;100.00
54389;BME280;40975;50.390;8.640;2022-09-23T04:12:01;99302.16;;;4.69;100.00
54389;BME280;40975;50.390;8.640;2022-09-23T04:14:28;99303.53;;;4.74;100.00
54389;BME280;40975;50.390;8.640;2022-09-23T04:16:53;99297.44;;;4.74;100.00
54389;BME280;40975;50.390;8.640;2022-09-23T04:19:18;99293.03;;;4.74;100.00
54389;BME280;40975;50.390;8.640;2022-09-23T04:21:44;99292.06;;;4.75;100.00
54389;BME280;40975;50.390;8.640;2022-09-23T04:24:10;99293.97;;;4.73;100.00
54389;BME280;40975;50.390;8.640;2022-09-23T04:26:37;99299.41;;;4.70;100.00
54389;BME280;40975;50.390;8.640;2022-09-23T04:29:03;99293.53;;;4.66;100.00
54389;BME280;40975;50.390;8.640;2022-09-23T04:31:32;99303.84;;;4.70;100.00
54389;BME280;40975;50.390;8.640;2022-09-23T04:33:58;99302.47;;;4.64;100.00
54389;BME280;40975;50.390;8.640;2022-09-23T04:36:24;99298.59;;;4.70;100.00
54389;BME280;40975;50.390;8.640;2022-09-23T04:38:49;99299.97;;;4.62;100.00
54389;BME280;40975;50.390;8.640;2022-09-23T04:41:15;99302.28;;;4.67;100.00
54389;BME280;40975;50.390;8.640;2022-09-23T04:43:41;99302.28;;;4.67;100.00
54389;BME280;40975;50.390;8.640;2022-09-23T04:46:09;99299.84;;;4.64;100.00
54389;BME280;40975;50.390;8.640;2022-09-23T04:48:36;99293.44;;;4.68;100.00
54389;BME280;40975;50.390;8.640;2022-09-23T04:51:08;99296.72;;;4.72;100.00
54389;BME280;40975;50.390;8.640;2022-09-23T04:53:34;99299.41;;;4.70;100.00
54389;BME280;40975;50.390;8.640;2022-09-23T04:56:06;99295.53;;;4.76;100.00
54389;BME280;40975;50.390;8.640;2022-09-23T04:58:34;99283.25;;;4.76;100.00
54389;BME280;40975;50.390;8.640;2022-09-23T05:03:34;99287.56;;;4.77;100.00
54389;BME280;40975;50.390;8.640;2022-09-23T05:06:00;99295.34;;;4.79;100.00
54389;BME280;40975;50.390;8.640;2022-09-23T05:08:26;99290.81;;;4.81;100.00
54389;BME280;40975;50.390;8.640;2022-09-23T05:10:59;99289.97;;;4.80;100.00
54389;BME280;40975;50.390;8.640;2022-09-23T05:13:25;99290.28;;;4.76;100.00
54389;BME280;40975;50.390;8.640;2022-09-23T05:16:01;99298.06;;;4.77;100.00
54389;BME280;40975;50.390;8.640;2022-09-23T05:18:30;99303.53;;;4.74;100.00
54389;BME280;40975;50.390;8.640;2022-09-23T05:20:56;99302.41;;;4.78;100.00
54389;BME280;40975;50.390;8.640;2022-09-23T05:23:23;99301.41;;;4.79;100.00
54389;BME280;40975;50.390;8.640;2022-09-23T05:25:58;99300.16;;;4.85;100.00
54389;BME280;40975;50.390;8.640;2022-09-23T05:28:25;99297.00;;;4.93;100.00
54389;BME280;40975;50.390;8.640;2022-09-23T05:30:52;99303.75;;;4.97;100.00
54389;BME280;40975;50.390;8.640;2022-09-23T05:33:17;99299.84;;;5.03;100.00
54389;BME280;40975;50.390;8.640;2022-09-23T05:35:47;99302.25;;;5.06;100.00
54389;BME280;40975;50.390;8.640;2022-09-23T05:38:12;99303.53;;;5.13;100.00
54389;BME280;40975;50.390;8.640;2022-09-23T05:40:40;99307.09;;;5.25;100.00
54389;BME280;40975;50.390;8.640;2022-09-23T05:43:05;99303.28;;;5.29;100.00
54389;BME280;40975;50.390;8.640;2022-09-23T05:45:31;99307.16;;;5.36;100.00
54389;BME280;40975;50.390;8.640;2022-09-23T05:47:56;99301.56;;;5.41;100.00
54389;BME280;40975;50.390;8.640;2022-09-23T05:50:22;99303.22;;;5.55;100.00
54389;BME280;40975;50.390;8.640;2022-09-23T05:52:47;99306.88;;;5.65;100.00
54389;BME280;40975;50.390;8.640;2022-09-23T05:55:12;99300.09;;;5.74;100.00
54389;BME280;40975;50.390;8.640;2022-09-23T05:57:38;99307.34;;;5.83;100.00
54389;BME280;40975;50.390;8.640;2022-09-23T06:00:04;99301.41;;;5.93;100.00
54389;BME280;40975;50.390;8.640;2022-09-23T06:02:37;99302.44;;;6.03;100.00
54389;BME280;40975;50.390;8.640;2022-09-23T06:05:02;99304.41;;;6.12;100.00
54389;BME280;40975;50.390;8.640;2022-09-23T06:07:27;99307.19;;;6.22;100.00
54389;BME280;40975;50.390;8.640;2022-09-23T06:09:53;99308.38;;;6.29;100.00
54389;BME280;40975;50.390;8.640;2022-09-23T06:12:19;99313.69;;;6.41;100.00
54389;BME280;40975;50.390;8.640;2022-09-23T06:14:44;99310.50;;;6.48;100.00
54389;BME280;40975;50.390;8.640;2022-09-23T06:17:10;99310.88;;;6.55;100.00
54389;BME280;40975;50.390;8.640;2022-09-23T06:19:35;99310.31;;;6.63;100.00
54389;BME280;40975;50.390;8.640;2022-09-23T06:22:00;99303.94;;;6.65;100.00
54389;BME280;40975;50.390;8.640;2022-09-23T06:24:25;99303.81;;;6.67;100.00
54389;BME280;40975;50.390;8.640;2022-09-23T06:26:51;99308.88;;;6.70;100.00
54389;BME280;40975;50.390;8.640;2022-09-23T06:29:16;99298.44;;;6.80;100.00
54389;BME280;40975;50.390;8.640;2022-09-23T06:31:42;99299.78;;;6.85;100.00
54389;BME280;40975;50.390;8.640;2022-09-23T06:34:11;99304.81;;;6.77;100.00
54389;BME280;40975;50.390;8.640;2022-09-23T06:36:37;99296.91;;;6.89;100.00
54389;BME280;40975;50.390;8.640;2022-09-23T06:39:03;99298.47;;;6.91;100.00
54389;BME280;40975;50.390;8.640;2022-09-23T06:41:28;99297.50;;;7.04;100.00
54389;BME280;40975;50.390;8.640;2022-09-23T06:43:56;99295.84;;;7.03;100.00
54389;BME280;40975;50.390;8.640;2022-09-23T06:46:21;99298.25;;;7.17;100.00
54389;BME280;40975;50.390;8.640;2022-09-23T06:48:47;99290.19;;;7.30;100.00
54389;BME280;40975;50.390;8.640;2022-09-23T06:51:13;99296.28;;;7.42;100.00
54389;BME280;40975;50.390;8.640;2022-09-23T06:53:44;99293.63;;;7.53;100.00
54389;BME280;40975;50.390;8.640;2022-09-23T06:56:10;99298.75;;;7.66;100.00
54389;BME280;40975;50.390;8.640;2022-09-23T06:58:36;99295.13;;;7.78;100.00
54389;BME280;40975;50.390;8.640;2022-09-23T07:01:11;99310.25;;;7.88;100.00
54389;BME280;40975;50.390;8.640;2022-09-23T07:03:37;99298.91;;;7.97;100.00
54389;BME280;40975;50.390;8.640;2022-09-23T07:06:03;99295.53;;;8.06;100.00
54389;BME280;40975;50.390;8.640;2022-09-23T07:08:29;99291.41;;;8.14;100.00
54389;BME280;40975;50.390;8.640;2022-09-23T07:10:58;99292.66;;;8.31;100.00
54389;BME280;40975;50.390;8.640;2022-09-23T07:13:24;99287.88;;;8.24;100.00
54389;BME280;40975;50.390;8.640;2022-09-23T07:15:52;99294.09;;;8.35;100.00
54389;BME280;40975;50.390;8.640;2022-09-23T07:18:18;99296.09;;;8.43;100.00
54389;BME280;40975;50.390;8.640;2022-09-23T07:20:44;99292.78;;;8.08;100.00
54389;BME280;40975;50.390;8.640;2022-09-23T07:23:11;99292.84;;;8.39;100.00
54389;BME280;40975;50.390;8.640;2022-09-23T07:25:36;99290.81;;;8.64;100.00
54389;BME280;40975;50.390;8.640;2022-09-23T07:28:01;99284.22;;;8.79;100.00
54389;BME280;40975;50.390;8.640;2022-09-23T07:30:27;99282.34;;;8.91;100.00
54389;BME280;40975;50.390;8.640;2022-09-23T07:32:52;99287.28;;;9.06;100.00
54389;BME280;40975;50.390;8.640;2022-09-23T07:35:18;99290.38;;;9.11;100.00
54389;BME280;40975;50.390;8.640;2022-09-23T07:37:43;99276.84;;;9.14;100.00
54389;BME280;40975;50.390;8.640;2022-09-23T07:40:10;99285.50;;;9.16;100.00
54389;BME280;40975;50.390;8.640;2022-09-23T07:42:36;99294.63;;;9.23;100.00
54389;BME280;40975;50.390;8.640;2022-09-23T07:45:03;99289.06;;;9.36;100.00
54389;BME280;40975;50.390;8.640;2022-09-23T07:47:30;99290.06;;;9.45;100.00
54389;BME280;40975;50.390;8.640;2022-09-23T07:49:56;99290.81;;;9.57;100.00
54389;BME280;40975;50.390;8.640;2022-09-23T07:52:21;99291.38;;;9.70;100.00
54389;BME280;40975;50.390;8.640;2022-09-23T07:54:46;99277.03;;;9.73;100.00
54389;BME280;40975;50.390;8.640;2022-09-23T07:57:12;99281.66;;;10.30;100.00
54389;BME280;40975;50.390;8.640;2022-09-23T07:59:38;99280.09;;;10.66;100.00
54389;BME280;40975;50.390;8.640;2022-09-23T08:02:05;99287.41;;;11.02;100.00
54389;BME280;40975;50.390;8.640;2022-09-23T08:04:31;99278.28;;;11.42;99.97
54389;BME280;40975;50.390;8.640;2022-09-23T08:07:02;99281.81;;;12.33;94.68
54389;BME280;40975;50.390;8.640;2022-09-23T08:09:34;99274.28;;;13.77;88.79
54389;BME280;40975;50.390;8.640;2022-09-23T08:12:03;99283.53;;;15.30;80.15
54389;BME280;40975;50.390;8.640;2022-09-23T08:14:29;99279.09;;;15.85;74.98
54389;BME280;40975;50.390;8.640;2022-09-23T08:16:55;99282.94;;;17.20;69.52
54389;BME280;40975;50.390;8.640;2022-09-23T08:19:20;99272.78;;;17.67;69.62
54389;BME280;40975;50.390;8.640;2022-09-23T08:21:46;99286.75;;;17.63;67.80
54389;BME280;40975;50.390;8.640;2022-09-23T08:24:14;99289.00;;;17.96;66.54
54389;BME280;40975;50.390;8.640;2022-09-23T08:26:40;99270.38;;;18.59;64.51
54389;BME280;40975;50.390;8.640;2022-09-23T08:29:06;99282.75;;;18.32;66.98
54389;BME280;40975;50.390;8.640;2022-09-23T08:31:34;99286.13;;;18.69;63.78
54389;BME280;40975;50.390;8.640;2022-09-23T08:34:00;99273.34;;;18.71;63.59
54389;BME280;40975;50.390;8.640;2022-09-23T08:36:25;99282.16;;;19.22;61.71
54389;BME280;40975;50.390;8.640;2022-09-23T08:38:51;99283.69;;;19.93;60.49
54389;BME280;40975;50.390;8.640;2022-09-23T08:41:39;99284.81;;;20.79;56.10
54389;BME280;40975;50.390;8.640;2022-09-23T08:44:20;99284.88;;;21.84;53.20
54389;BME280;40975;50.390;8.640;2022-09-23T08:47:15;99281.22;;;22.67;52.34
54389;BME280;40975;50.390;8.640;2022-09-23T08:50:00;99280.88;;;22.25;51.30
54389;BME280;40975;50.390;8.640;2022-09-23T08:52:31;99277.97;;;22.77;49.83
54389;BME280;40975;50.390;8.640;2022-09-23T08:54:58;99278.03;;;23.14;46.85
54389;BME280;40975;50.390;8.640;2022-09-23T08:57:52;99273.97;;;23.05;47.04
54389;BME280;40975;50.390;8.640;2022-09-23T09:00:32;99274.00;;;22.29;51.68
54389;BME280;40975;50.390;8.640;2022-09-23T09:03:03;99269.97;;;22.39;49.52
54389;BME280;40975;50.390;8.640;2022-09-23T09:05:35;99267.13;;;21.69;51.48
54389;BME280;40975;50.390;8.640;2022-09-23T09:08:02;99268.19;;;22.00;48.59
54389;BME280;40975;50.390;8.640;2022-09-23T09:10:34;99271.56;;;21.37;49.09
54389;BME280;40975;50.390;8.640;2022-09-23T09:13:08;99266.34;;;22.26;48.81
54389;BME280;40975;50.390;8.640;2022-09-23T09:15:41;99269.88;;;22.96;47.93
54389;BME280;40975;50.390;8.640;2022-09-23T09:18:18;99260.34;;;22.17;48.20
54389;BME280;40975;50.390;8.640;2022-09-23T09:21:10;99258.81;;;22.03;51.37
54389;BME280;40975;50.390;8.640;2022-09-23T09:26:15;99266.50;;;21.67;50.25
54389;BME280;40975;50.390;8.640;2022-09-23T09:28:44;99271.97;;;23.38;46.04
54389;BME280;40975;50.390;8.640;2022-09-23T09:34:01;99265.72;;;24.41;44.01
54389;BME280;40975;50.390;8.640;2022-09-23T09:37:14;99263.94;;;23.62;42.50
54389;BME280;40975;50.390;8.640;2022-09-23T09:39:42;99256.72;;;24.04;41.94
54389;BME280;40975;50.390;8.640;2022-09-23T09:42:16;99261.50;;;24.45;41.84
54389;BME280;40975;50.390;8.640;2022-09-23T09:44:57;99262.06;;;24.35;40.96
54389;BME280;40975;50.390;8.640;2022-09-23T09:47:40;99248.41;;;24.89;39.53
54389;BME280;40975;50.390;8.640;2022-09-23T09:51:14;99235.69;;;24.54;39.42
54389;BME280;40975;50.390;8.640;2022-09-23T09:56:08;99233.47;;;24.75;39.77
54389;BME280;40975;50.390;8.640;2022-09-23T09:58:44;99201.69;;;24.40;40.89
54389;BME280;40975;50.390;8.640;2022-09-23T10:01:31;99220.38;;;25.24;40.73
54389;BME280;40975;50.390;8.640;2022-09-23T10:03:59;99226.94;;;25.98;39.46
54389;BME280;40975;50.390;8.640;2022-09-23T10:06:28;99228.69;;;24.58;41.41
54389;BME280;40975;50.390;8.640;2022-09-23T10:11:26;99228.59;;;24.77;39.71
54389;BME280;40975;50.390;8.640;2022-09-23T10:16:24;99230.06;;;25.90;39.94
54389;BME280;40975;50.390;8.640;2022-09-23T10:18:49;99224.09;;;25.47;41.19
54389;BME280;40975;50.390;8.640;2022-09-23T10:21:20;99215.50;;;24.86;40.31
54389;BME280;40975;50.390;8.640;2022-09-23T10:23:49;99221.06;;;25.32;38.67
54389;BME280;40975;50.390;8.640;2022-09-23T10:26:24;99218.34;;;24.79;41.08
54389;BME280;40975;50.390;8.640;2022-09-23T10:28:53;99223.75;;;24.43;41.48
54389;BME280;40975;50.390;8.640;2022-09-23T10:31:37;99213.63;;;24.62;44.88
54389;BME280;40975;50.390;8.640;2022-09-23T10:34:22;99211.63;;;24.58;42.94
54389;BME280;40975;50.390;8.640;2022-09-23T10:37:13;99209.34;;;24.31;42.52
54389;BME280;40975;50.390;8.640;2022-09-23T10:39:39;99202.06;;;24.31;44.42
54389;BME280;40975;50.390;8.640;2022-09-23T10:45:39;99197.66;;;25.02;44.11
54389;BME280;40975;50.390;8.640;2022-09-23T10:51:31;99192.41;;;24.47;43.64
54389;BME280;40975;50.390;8.640;2022-09-23T10:54:06;99198.28;;;24.20;42.56
54389;BME280;40975;50.390;8.640;2022-09-23T10:56:42;99190.34;;;23.95;43.90
54389;BME280;40975;50.390;8.640;2022-09-23T11:02:10;99176.88;;;23.88;43.21
54389;BME280;40975;50.390;8.640;2022-09-23T11:07:38;99169.16;;;22.57;45.88
54389;BME280;40975;50.390;8.640;2022-09-23T11:10:19;99169.94;;;22.39;46.18
54389;BME280;40975;50.390;8.640;2022-09-23T11:13:05;99163.34;;;22.09;47.65
54389;BME280;40975;50.390;8.640;2022-09-23T11:23:50;99166.63;;;21.54;48.68
54389;BME280;40975;50.390;8.640;2022-09-23T11:29:25;99159.88;;;20.92;49.63
54389;BME280;40975;50.390;8.640;2022-09-23T11:37:07;99144.00;;;20.50;53.62
54389;BME280;40975;50.390;8.640;2022-09-23T11:39:43;99144.59;;;20.66;52.47
54389;BME280;40975;50.390;8.640;2022-09-23T11:42:20;99137.06;;;20.81;50.93
54389;BME280;40975;50.390;8.640;2022-09-23T11:44:58;99133.16;;;20.84;52.82
54389;BME280;40975;50.390;8.640;2022-09-23T11:47:34;99128.28;;;19.60;53.53
54389;BME280;40975;50.390;8.640;2022-09-23T11:50:16;99126.22;;;19.62;53.84
54389;BME280;40975;50.390;8.640;2022-09-23T11:52:47;99119.59;;;19.85;53.06
54389;BME280;40975;50.390;8.640;2022-09-23T11:55:21;99116.69;;;19.60;57.29
54389;BME280;40975;50.390;8.640;2022-09-23T11:58:09;99118.44;;;19.12;56.25
54389;BME280;40975;50.390;8.640;2022-09-23T12:00:43;99114.09;;;19.04;55.88
54389;BME280;40975;50.390;8.640;2022-09-23T12:03:39;99107.94;;;19.24;56.27
54389;BME280;40975;50.390;8.640;2022-09-23T12:06:18;99113.31;;;19.24;57.58
54389;BME280;40975;50.390;8.640;2022-09-23T12:08:44;99103.84;;;19.68;55.53
54389;BME280;40975;50.390;8.640;2022-09-23T12:11:26;99099.91;;;19.51;54.86
54389;BME280;40975;50.390;8.640;2022-09-23T12:14:09;99100.97;;;19.70;56.30
54389;BME280;40975;50.390;8.640;2022-09-23T12:17:05;99106.34;;;19.63;55.17
54389;BME280;40975;50.390;8.640;2022-09-23T12:25:25;99096.97;;;19.32;56.28
54389;BME280;40975;50.390;8.640;2022-09-23T12:27:54;99099.00;;;19.10;54.82
54389;BME280;40975;50.390;8.640;2022-09-23T12:30:27;99089.28;;;19.16;55.21
54389;BME280;40975;50.390;8.640;2022-09-23T12:35:42;99090.16;;;19.56;53.70
54389;BME280;40975;50.390;8.640;2022-09-23T12:38:25;99088.22;;;19.03;53.89
54389;BME280;40975;50.390;8.640;2022-09-23T12:40:54;99084.38;;;19.60;52.61
54389;BME280;40975;50.390;8.640;2022-09-23T12:43:31;99082.28;;;19.68;52.30
54389;BME280;40975;50.390;8.640;2022-09-23T12:46:19;99076.09;;;19.88;52.69
54389;BME280;40975;50.390;8.640;2022-09-23T12:51:31;99080.47;;;19.76;52.39
54389;BME280;40975;50.390;8.640;2022-09-23T12:54:19;99081.47;;;19.54;52.41
54389;BME280;40975;50.390;8.640;2022-09-23T12:59:27;99068.75;;;18.94;52.63
54389;BME280;40975;50.390;8.640;2022-09-23T13:01:54;99066.00;;;18.88;53.65
54389;BME280;40975;50.390;8.640;2022-09-23T13:04:42;99059.94;;;19.54;55.25
54389;BME280;40975;50.390;8.640;2022-09-23T13:07:30;99055.38;;;19.62;52.36
54389;BME280;40975;50.390;8.640;2022-09-23T13:10:26;99060.78;;;19.48;52.69
54389;BME280;40975;50.390;8.640;2022-09-23T13:12:53;99056.22;;;19.49;51.87
54389;BME280;40975;50.390;8.640;2022-09-23T13:15:31;99059.50;;;19.17;54.60
54389;BME280;40975;50.390;8.640;2022-09-23T13:20:52;99054.22;;;18.89;54.35
54389;BME280;40975;50.390;8.640;2022-09-23T13:23:21;99048.50;;;18.99;56.60
54389;BME280;40975;50.390;8.640;2022-09-23T13:25:48;99043.34;;;19.17;55.81
54389;BME280;40975;50.390;8.640;2022-09-23T13:28:31;99051.31;;;18.84;54.41
54389;BME280;40975;50.390;8.640;2022-09-23T13:30:58;99040.84;;;19.22;55.97
54389;BME280;40975;50.390;8.640;2022-09-23T13:36:12;99032.38;;;19.12;54.86
54389;BME280;40975;50.390;8.640;2022-09-23T13:38:37;99031.50;;;18.98;54.74
54389;BME280;40975;50.390;8.640;2022-09-23T13:41:11;99020.97;;;18.97;54.95
54389;BME280;40975;50.390;8.640;2022-09-23T13:43:49;99023.19;;;18.86;54.31
54389;BME280;40975;50.390;8.640;2022-09-23T13:46:18;99012.94;;;19.23;55.53
54389;BME280;40975;50.390;8.640;2022-09-23T13:48:46;99024.91;;;19.01;55.14
54389;BME280;40975;50.390;8.640;2022-09-23T13:51:19;99032.50;;;18.84;55.40
54389;BME280;40975;50.390;8.640;2022-09-23T13:53:51;99017.06;;;19.06;55.45
54389;BME280;40975;50.390;8.640;2022-09-23T13:56:17;99020.75;;;18.98;55.02
54389;BME280;40975;50.390;8.640;2022-09-23T13:58:43;99005.72;;;19.31;55.85
54389;BME280;40975;50.390;8.640;2022-09-23T14:03:47;99000.09;;;19.12;55.22
54389;BME280;40975;50.390;8.640;2022-09-23T14:06:14;99004.75;;;18.83;55.48
54389;BME280;40975;50.390;8.640;2022-09-23T14:08:44;99003.09;;;18.69;55.54
54389;BME280;40975;50.390;8.640;2022-09-23T14:11:15;98997.72;;;18.82;55.01
54389;BME280;40975;50.390;8.640;2022-09-23T14:13:42;98990.69;;;18.74;55.92
54389;BME280;40975;50.390;8.640;2022-09-23T14:16:10;98992.94;;;18.64;56.05
54389;BME280;40975;50.390;8.640;2022-09-23T14:18:41;98988.44;;;18.85;55.29
54389;BME280;40975;50.390;8.640;2022-09-23T14:23:50;98975.44;;;18.88;55.42
54389;BME280;40975;50.390;8.640;2022-09-23T14:26:16;98976.44;;;18.80;56.87
54389;BME280;40975;50.390;8.640;2022-09-23T14:28:42;98971.22;;;18.65;56.17
54389;BME280;40975;50.390;8.640;2022-09-23T14:31:07;98966.88;;;18.58;56.10
54389;BME280;40975;50.390;8.640;2022-09-23T14:33:39;98963.78;;;18.61;57.49
54389;BME280;40975;50.390;8.640;2022-09-23T14:36:06;98963.09;;;18.39;56.18
54389;BME280;40975;50.390;8.640;2022-09-23T14:39:00;98955.66;;;18.34;57.26
54389;BME280;40975;50.390;8.640;2022-09-23T14:41:25;98962.81;;;18.20;58.26
54389;BME280;40975;50.390;8.640;2022-09-23T14:43:52;98960.41;;;18.39;58.13
54389;BME280;40975;50.390;8.640;2022-09-23T14:46:20;98964.56;;;18.41;59.04
54389;BME280;40975;50.390;8.640;2022-09-23T14:49:03;98958.38;;;18.54;57.97